Terminal Aerodrome Forecast
Issued by NWS Billings, MT

Current Version | Previous Version | Text Only | Print | Product List | Glossary On
Versions: 1 2 3 4 5 6 7 8 9 10 11 12 13 14 15 16 17 18 19 20 21 22 23 24 25
000
FTUS45 KBYZ 062336
TAFSHR
TAF
KSHR 062336Z 0700/0724 30008KT P6SM FEW100 BKN200 WS020/32025KT
     FM070200 29005KT P6SM FEW100 BKN200 WS015/32030KT
     FM070800 VRB04KT P6SM BKN200=

USA.gov is the U.S. government's official web portal to all federal, state and local government web resources and services.